createdAt,value
2022-09-07T00:00:20.332Z,10.57
2022-09-07T00:03:24.544Z,8.97
2022-09-07T00:06:29.335Z,9.60
2022-09-07T00:09:34.452Z,8.57
2022-09-07T00:12:38.078Z,9.67
2022-09-07T00:15:42.044Z,8.93
2022-09-07T00:18:46.733Z,10.67
2022-09-07T00:21:50.512Z,11.50
2022-09-07T00:24:55.564Z,10.03
2022-09-07T00:27:59.231Z,9.23
2022-09-07T00:31:03.354Z,8.80
2022-09-07T00:34:07.351Z,8.87
2022-09-07T00:37:11.216Z,8.30
2022-09-07T00:40:16.262Z,8.90
2022-09-07T00:43:33.209Z,9.90
2022-09-07T00:46:37.056Z,8.13
2022-09-07T00:49:43.393Z,8.93
2022-09-07T00:52:52.364Z,8.53
2022-09-07T00:56:01.002Z,8.03
2022-09-07T00:59:05.390Z,9.13
2022-09-07T01:02:10.025Z,9.30
2022-09-07T01:05:24.703Z,8.53
2022-09-07T01:08:29.807Z,9.40
2022-09-07T01:11:36.251Z,8.37
2022-09-07T01:14:47.391Z,8.30
2022-09-07T01:18:05.213Z,7.97
2022-09-07T01:21:26.563Z,9.37
2022-09-07T01:25:05.292Z,8.90
2022-09-07T01:28:21.775Z,10.33
2022-09-07T01:31:42.980Z,8.87
2022-09-07T01:34:54.985Z,8.87
2022-09-07T01:38:10.889Z,8.00
2022-09-07T01:41:24.824Z,8.40
2022-09-07T01:44:39.017Z,7.73
2022-09-07T01:47:47.354Z,9.10
2022-09-07T01:50:57.821Z,8.37
2022-09-07T01:54:12.413Z,8.73
2022-09-07T01:57:24.991Z,8.30
2022-09-07T02:00:32.426Z,10.27
2022-09-07T02:03:43.547Z,10.40
2022-09-07T02:06:53.048Z,9.60
2022-09-07T02:10:02.799Z,10.47
2022-09-07T02:13:14.265Z,8.67
2022-09-07T02:16:25.785Z,9.23
2022-09-07T02:19:37.724Z,8.77
2022-09-07T02:22:46.773Z,8.17
2022-09-07T02:25:56.187Z,9.43
2022-09-07T02:29:00.210Z,8.53
2022-09-07T02:32:06.499Z,9.87
2022-09-07T02:35:10.924Z,8.53
2022-09-07T02:38:15.105Z,9.97
2022-09-07T02:41:34.230Z,11.20
2022-09-07T02:44:41.913Z,9.20
2022-09-07T02:48:10.683Z,9.50
2022-09-07T02:51:25.695Z,9.40
2022-09-07T02:54:51.028Z,9.07
2022-09-07T02:58:15.017Z,8.97
2022-09-07T03:01:37.404Z,9.67
2022-09-07T03:04:52.309Z,9.77
2022-09-07T03:08:02.369Z,9.57
2022-09-07T03:11:07.808Z,14.67
2022-09-07T03:14:19.161Z,8.97
2022-09-07T03:17:22.903Z,9.33
2022-09-07T03:20:27.931Z,9.57
2022-09-07T03:23:31.581Z,10.97
2022-09-07T03:26:36.967Z,10.87
2022-09-07T03:29:42.100Z,12.03
2022-09-07T03:32:46.009Z,10.27
2022-09-07T03:36:02.459Z,10.50
2022-09-07T03:39:07.623Z,11.13
2022-09-07T03:42:11.330Z,10.63
2022-09-07T03:45:15.186Z,11.53
2022-09-07T03:48:19.070Z,12.47
2022-09-07T03:51:24.186Z,11.33
2022-09-07T03:54:28.104Z,11.73
2022-09-07T03:57:32.059Z,12.60
2022-09-07T04:00:36.213Z,12.07
2022-09-07T04:03:41.068Z,12.63
2022-09-07T04:06:46.151Z,16.13
2022-09-07T04:09:52.341Z,13.60
2022-09-07T04:12:56.355Z,14.07
2022-09-07T04:16:00.329Z,14.23
2022-09-07T04:19:05.135Z,14.37
2022-09-07T04:22:10.225Z,12.17
2022-09-07T04:25:14.059Z,14.60
2022-09-07T04:28:17.890Z,12.60
2022-09-07T04:31:22.965Z,14.63
2022-09-07T04:34:26.767Z,16.97
2022-09-07T04:37:31.909Z,17.00
2022-09-07T04:40:36.160Z,13.77
2022-09-07T04:43:43.357Z,13.10
2022-09-07T04:46:47.214Z,13.60
2022-09-07T04:49:52.348Z,14.63
2022-09-07T04:52:57.586Z,14.13
2022-09-07T04:56:01.684Z,13.33
2022-09-07T04:59:05.926Z,13.13
2022-09-07T05:02:09.885Z,13.10
2022-09-07T05:05:13.651Z,14.07
2022-09-07T05:08:22.923Z,13.27
2022-09-07T05:11:29.723Z,14.73
2022-09-07T05:14:33.716Z,13.73
2022-09-07T05:17:37.371Z,14.33
2022-09-07T05:20:41.820Z,12.50
2022-09-07T05:23:50.655Z,14.43
2022-09-07T05:26:54.920Z,17.53
2022-09-07T05:33:09.143Z,15.37
2022-09-07T05:36:12.924Z,14.67
2022-09-07T05:39:18.661Z,19.83
2022-09-07T05:42:22.771Z,15.53
2022-09-07T05:45:26.732Z,17.73
2022-09-07T05:48:30.805Z,18.17
2022-09-07T05:51:34.918Z,21.53
2022-09-07T05:54:40.251Z,24.43
2022-09-07T05:57:43.951Z,24.00
2022-09-07T06:00:47.820Z,20.53
2022-09-07T06:03:51.723Z,21.53
2022-09-07T06:13:44.855Z,22.10
2022-09-07T06:16:48.616Z,22.10
2022-09-07T06:19:52.379Z,22.30
2022-09-07T06:22:56.117Z,22.30
2022-09-07T06:26:02.146Z,23.93
2022-09-07T06:29:06.015Z,23.63
2022-09-07T06:35:33.315Z,25.90
2022-09-07T06:38:39.467Z,25.53
2022-09-07T06:41:59.816Z,27.20
2022-09-07T06:45:03.599Z,25.80
2022-09-07T06:48:07.329Z,25.70
2022-09-07T06:51:15.718Z,27.57
2022-09-07T06:57:44.551Z,28.10
2022-09-07T07:00:48.491Z,27.83
2022-09-07T07:03:53.639Z,27.30
2022-09-07T07:06:57.372Z,26.30
2022-09-07T07:10:01.044Z,27.20
2022-09-07T07:13:06.133Z,30.60
2022-09-07T07:16:11.716Z,29.67
2022-09-07T07:19:15.803Z,29.80
2022-09-07T07:22:45.023Z,29.37
2022-09-07T07:25:43.189Z,30.20
2022-09-07T07:29:06.076Z,28.53
2022-09-07T07:32:09.858Z,30.63
2022-09-07T07:35:15.102Z,31.50
2022-09-07T07:42:00.316Z,31.70
2022-09-07T07:48:35.970Z,27.13
2022-09-07T07:55:42.981Z,25.93
2022-09-07T07:58:28.265Z,24.93
2022-09-07T08:01:33.395Z,25.13
2022-09-07T08:04:37.620Z,24.80
2022-09-07T08:07:41.280Z,24.03
2022-09-07T08:10:46.141Z,22.77
2022-09-07T08:13:52.172Z,22.10
2022-09-07T08:16:57.232Z,21.37
2022-09-07T08:20:00.767Z,22.83
2022-09-07T08:23:04.499Z,23.33
2022-09-07T08:26:09.557Z,26.40
2022-09-07T08:29:13.426Z,24.17
2022-09-07T08:32:18.397Z,22.47
2022-09-07T08:35:22.087Z,24.73
2022-09-07T08:38:26.308Z,21.60
2022-09-07T08:42:03.143Z,22.37
2022-09-07T08:45:12.983Z,18.47
2022-09-07T08:48:24.914Z,18.30
2022-09-07T08:51:38.365Z,19.47
2022-09-07T08:54:50.976Z,16.30
2022-09-07T08:58:05.134Z,16.70
2022-09-07T09:08:33.571Z,17.13
2022-09-07T09:11:53.901Z,17.53
2022-09-07T09:15:17.632Z,14.87
2022-09-07T09:18:37.674Z,15.40
2022-09-07T09:21:44.673Z,15.97
2022-09-07T09:24:54.062Z,15.53
2022-09-07T09:27:57.741Z,14.27
2022-09-07T09:31:01.442Z,13.77
2022-09-07T09:34:17.702Z,13.63
2022-09-07T09:37:36.777Z,13.53
2022-09-07T09:40:40.704Z,16.37
2022-09-07T09:43:47.952Z,14.97
2022-09-07T09:53:59.234Z,13.93
2022-09-07T09:57:03.606Z,15.00
2022-09-07T10:00:23.635Z,15.43
2022-09-07T10:07:07.891Z,16.50
2022-09-07T10:10:17.867Z,16.37
2022-09-07T10:13:25.253Z,14.20
2022-09-07T10:16:42.261Z,17.10
2022-09-07T10:19:46.053Z,15.60
2022-09-07T10:23:00.758Z,17.97
2022-09-07T10:26:27.163Z,17.90
2022-09-07T10:29:36.031Z,18.70
2022-09-07T10:33:02.287Z,17.57
2022-09-07T10:36:16.438Z,18.20
2022-09-07T10:39:26.704Z,18.80
2022-09-07T10:42:36.611Z,18.37
2022-09-07T10:53:42.071Z,15.87
2022-09-07T10:57:04.249Z,17.80
2022-09-07T11:00:16.447Z,15.23
2022-09-07T11:04:04.232Z,14.07
2022-09-07T11:07:32.035Z,17.27
2022-09-07T11:10:47.589Z,10.47
2022-09-07T11:14:12.443Z,9.97
2022-09-07T11:17:24.501Z,8.23
2022-09-07T11:20:35.564Z,8.33
2022-09-07T11:23:46.110Z,7.80
2022-09-07T11:26:57.557Z,8.00
2022-09-07T11:30:07.084Z,6.90
2022-09-07T11:33:20.592Z,8.67
2022-09-07T11:36:27.974Z,11.07
2022-09-07T11:39:37.415Z,7.70
2022-09-07T11:42:51.192Z,8.13
2022-09-07T11:46:02.640Z,9.20
2022-09-07T11:49:18.988Z,6.03
2022-09-07T11:52:35.331Z,5.70
2022-09-07T11:55:45.328Z,6.10
2022-09-07T11:59:19.348Z,6.57
2022-09-07T12:03:38.192Z,5.40
2022-09-07T12:07:18.446Z,5.20
2022-09-07T12:10:56.088Z,4.70
2022-09-07T12:14:18.944Z,4.73
2022-09-07T12:17:45.712Z,7.90
2022-09-07T12:20:50.496Z,4.83
2022-09-07T12:23:55.542Z,5.57
2022-09-07T12:27:01.836Z,4.97
2022-09-07T12:30:57.911Z,5.10
2022-09-07T12:34:58.996Z,3.43
2022-09-07T12:38:06.059Z,4.70
2022-09-07T12:41:26.598Z,3.03
2022-09-07T12:44:30.188Z,4.10
2022-09-07T12:47:33.891Z,3.27
2022-09-07T12:50:58.931Z,7.80
2022-09-07T12:54:13.760Z,6.07
2022-09-07T12:57:34.456Z,2.73
2022-09-07T13:01:01.007Z,2.47
2022-09-07T13:04:48.637Z,3.10
2022-09-07T13:08:43.981Z,2.47
2022-09-07T13:11:48.478Z,5.23
2022-09-07T13:14:57.218Z,4.80
2022-09-07T13:18:01.301Z,5.37
2022-09-07T13:21:38.645Z,3.30
2022-09-07T13:24:56.806Z,3.40
2022-09-07T13:28:04.495Z,3.17
2022-09-07T13:31:45.184Z,3.60
2022-09-07T13:35:06.762Z,3.80
2022-09-07T13:38:16.705Z,3.97
2022-09-07T13:41:36.226Z,5.30
2022-09-07T13:44:41.696Z,3.60
2022-09-07T13:48:01.678Z,3.23
2022-09-07T13:51:14.309Z,2.97
2022-09-07T13:54:30.166Z,4.30
2022-09-07T13:57:49.487Z,3.70
2022-09-07T14:00:55.837Z,3.67
2022-09-07T14:04:07.636Z,2.67
2022-09-07T14:07:17.095Z,4.57
2022-09-07T14:10:23.268Z,6.97
2022-09-07T14:13:26.849Z,3.00
2022-09-07T14:16:30.629Z,2.70
2022-09-07T14:19:40.847Z,3.23
2022-09-07T14:22:49.414Z,6.17
2022-09-07T14:26:17.166Z,5.57
2022-09-07T14:29:27.007Z,3.47
2022-09-07T14:32:32.167Z,3.97
2022-09-07T14:35:42.407Z,3.87
2022-09-07T14:42:15.216Z,5.13
2022-09-07T14:45:37.522Z,3.87
2022-09-07T14:48:43.125Z,4.17
2022-09-07T14:51:49.275Z,4.00
2022-09-07T14:54:54.138Z,5.43
2022-09-07T14:58:24.054Z,4.90
2022-09-07T15:01:44.126Z,3.77
2022-09-07T15:04:49.039Z,3.87
2022-09-07T15:07:57.866Z,3.50
2022-09-07T15:14:28.106Z,4.07
2022-09-07T15:17:49.283Z,4.80
2022-09-07T15:20:53.158Z,7.00
2022-09-07T15:24:00.792Z,5.10
2022-09-07T15:27:20.823Z,7.47
2022-09-07T15:30:25.293Z,5.17
2022-09-07T15:33:31.454Z,5.43
2022-09-07T15:36:35.102Z,6.93
2022-09-07T15:39:40.480Z,8.20
2022-09-07T15:42:59.963Z,7.03
2022-09-07T15:46:04.376Z,6.50
2022-09-07T15:49:08.222Z,6.77
2022-09-07T15:52:11.766Z,7.53
2022-09-07T15:55:17.394Z,6.70
2022-09-07T15:58:21.686Z,7.17
2022-09-07T16:04:49.701Z,5.83
2022-09-07T16:11:23.990Z,6.20
2022-09-07T16:14:27.887Z,7.57
2022-09-07T16:17:36.698Z,6.60
2022-09-07T16:20:42.183Z,6.27
2022-09-07T16:23:48.975Z,7.30
2022-09-07T16:26:53.910Z,6.63
2022-09-07T16:29:57.566Z,7.40
2022-09-07T16:33:01.288Z,9.90
2022-09-07T16:36:09.211Z,8.50
2022-09-07T16:39:12.862Z,7.37
2022-09-07T16:42:17.802Z,7.07
2022-09-07T16:49:04.097Z,9.10
2022-09-07T16:52:10.810Z,9.27
2022-09-07T16:55:14.779Z,8.80
2022-09-07T16:58:35.715Z,8.67
2022-09-07T17:01:40.061Z,9.60
2022-09-07T17:04:43.656Z,9.70
2022-09-07T17:07:47.714Z,9.70
2022-09-07T17:10:51.243Z,9.80
2022-09-07T17:13:59.070Z,9.33
2022-09-07T17:17:02.723Z,8.50
2022-09-07T17:20:07.963Z,8.67
2022-09-07T17:23:11.599Z,8.17
2022-09-07T17:26:17.072Z,10.77
2022-09-07T17:29:22.306Z,9.57
2022-09-07T17:32:28.627Z,7.83
2022-09-07T17:35:37.411Z,10.10
2022-09-07T17:42:05.587Z,8.77
2022-09-07T17:45:11.647Z,8.47
2022-09-07T17:48:15.402Z,9.90
2022-09-07T17:51:20.135Z,9.90
2022-09-07T17:54:24.902Z,10.73
2022-09-07T17:57:30.884Z,9.90
2022-09-07T18:00:36.007Z,9.60
2022-09-07T18:03:40.235Z,9.50
2022-09-07T18:06:44.214Z,10.67
2022-09-07T18:09:47.777Z,9.50
2022-09-07T18:12:51.419Z,9.87
2022-09-07T18:15:56.625Z,9.20
2022-09-07T18:19:03.613Z,10.67
2022-09-07T18:22:08.744Z,9.53
2022-09-07T18:25:12.795Z,9.93
2022-09-07T18:31:41.365Z,10.03
2022-09-07T18:34:50.239Z,10.17
2022-09-07T18:37:55.318Z,12.87
2022-09-07T18:41:04.594Z,11.23
2022-09-07T18:45:27.274Z,11.77
2022-09-07T18:47:33.483Z,11.97
2022-09-07T18:50:37.407Z,11.20
2022-09-07T18:53:41.460Z,11.37
2022-09-07T18:56:45.085Z,12.03
2022-09-07T18:59:48.811Z,12.07
2022-09-07T19:02:53.846Z,12.87
2022-09-07T19:06:03.728Z,12.80
2022-09-07T19:09:07.358Z,13.90
2022-09-07T19:12:10.986Z,13.70
2022-09-07T19:15:32.302Z,13.97
2022-09-07T19:18:41.474Z,12.60
2022-09-07T19:21:45.091Z,15.67
2022-09-07T19:24:49.509Z,14.27
2022-09-07T19:27:53.173Z,14.80
2022-09-07T19:31:02.733Z,14.90
2022-09-07T19:34:07.850Z,14.80
2022-09-07T19:37:14.604Z,14.80
2022-09-07T19:40:19.409Z,15.43
2022-09-07T19:43:23.169Z,14.80
2022-09-07T19:46:27.615Z,15.33
2022-09-07T19:49:32.739Z,18.07
2022-09-07T19:52:36.882Z,15.37
2022-09-07T19:55:40.861Z,15.83
2022-09-07T19:58:46.376Z,16.33
2022-09-07T20:01:50.917Z,17.37
2022-09-07T20:04:55.963Z,17.27
2022-09-07T20:07:59.667Z,17.57
2022-09-07T20:11:03.976Z,15.93
2022-09-07T20:14:07.758Z,17.73
2022-09-07T20:17:11.520Z,17.53
2022-09-07T20:20:16.717Z,16.30
2022-09-07T20:23:20.732Z,16.47
2022-09-07T20:26:24.985Z,15.50
2022-09-07T20:29:29.574Z,16.23
2022-09-07T20:32:33.251Z,15.67
2022-09-07T20:35:38.163Z,17.40
2022-09-07T20:38:44.127Z,19.73
2022-09-07T20:41:48.176Z,19.20
2022-09-07T20:44:51.919Z,19.13
2022-09-07T20:47:55.527Z,20.83
2022-09-07T20:51:03.978Z,22.03
2022-09-07T20:54:08.215Z,21.40
2022-09-07T20:57:11.976Z,20.73
2022-09-07T21:00:15.933Z,19.70
2022-09-07T21:03:20.289Z,17.83
2022-09-07T21:06:27.405Z,18.97
2022-09-07T21:09:30.985Z,18.80
2022-09-07T21:12:34.676Z,21.00
2022-09-07T21:15:39.469Z,22.07
2022-09-07T21:18:44.407Z,25.13
2022-09-07T21:21:49.389Z,23.33
2022-09-07T21:24:54.164Z,23.83
2022-09-07T21:27:57.831Z,23.37
2022-09-07T21:31:04.699Z,24.57
2022-09-07T21:34:08.344Z,26.43
2022-09-07T21:37:13.327Z,25.63
2022-09-07T21:40:17.380Z,26.77
2022-09-07T21:43:21.048Z,28.77
2022-09-07T21:46:25.073Z,29.50
2022-09-07T21:49:28.746Z,29.47
2022-09-07T21:52:33.754Z,28.90
2022-09-07T21:55:37.664Z,27.97
2022-09-07T21:58:41.584Z,29.17
2022-09-07T22:01:45.244Z,27.23
2022-09-07T22:04:48.892Z,27.53
2022-09-07T22:07:53.967Z,29.47
2022-09-07T22:11:06.324Z,30.70
2022-09-07T22:14:13.395Z,30.40
2022-09-07T22:17:17.111Z,29.83
2022-09-07T22:20:20.998Z,29.40
2022-09-07T22:23:26.043Z,29.43
2022-09-07T22:26:32.371Z,29.17
2022-09-07T22:29:35.927Z,29.53
2022-09-07T22:32:39.512Z,28.83
2022-09-07T22:35:43.290Z,29.10
2022-09-07T22:38:51.406Z,28.30
2022-09-07T22:41:54.952Z,28.97
2022-09-07T22:44:58.829Z,28.83
2022-09-07T22:48:02.522Z,29.57
2022-09-07T22:51:07.264Z,26.80
2022-09-07T22:54:12.586Z,27.90
2022-09-07T22:57:16.203Z,27.07
2022-09-07T23:00:19.907Z,26.60
2022-09-07T23:03:23.544Z,26.60
2022-09-07T23:06:30.769Z,26.87
2022-09-07T23:09:35.763Z,27.10
2022-09-07T23:12:40.484Z,26.47
2022-09-07T23:15:44.400Z,23.73
2022-09-07T23:18:48.325Z,25.73
2022-09-07T23:21:51.939Z,25.07
2022-09-07T23:24:56.882Z,27.17
2022-09-07T23:28:00.546Z,25.23
2022-09-07T23:31:04.224Z,25.37
2022-09-07T23:34:08.574Z,26.07
2022-09-07T23:37:12.101Z,24.90
2022-09-07T23:40:17.317Z,25.07
2022-09-07T23:43:20.902Z,24.47
2022-09-07T23:46:25.333Z,26.23
2022-09-07T23:49:29.209Z,25.20
2022-09-07T23:52:33.759Z,25.77
2022-09-07T23:55:39.673Z,25.80
2022-09-07T23:58:43.399Z,25.87
